sensor_id;sensor_type;location;lat;lon;timestamp;pressure;altitude;pressure_sealevel;temperature;humidity
9009;BME280;62813;51.424;6.762;2023-04-08T00:00:10;101913.28;;;9.27;96.54
9009;BME280;62813;51.424;6.762;2023-04-08T00:02:37;101917.56;;;9.28;96.34
9009;BME280;62813;51.424;6.762;2023-04-08T00:05:05;101908.94;;;9.28;96.42
9009;BME280;62813;51.424;6.762;2023-04-08T00:07:32;101913.28;;;9.27;96.36
9009;BME280;62813;51.424;6.762;2023-04-08T00:09:59;101917.56;;;9.28;96.32
9009;BME280;62813;51.424;6.762;2023-04-08T00:12:25;101915.88;;;9.27;96.35
9009;BME280;62813;51.424;6.762;2023-04-08T00:14:52;101920.16;;;9.28;96.13
9009;BME280;62813;51.424;6.762;2023-04-08T00:17:19;101927.03;;;9.29;96.12
9009;BME280;62813;51.424;6.762;2023-04-08T00:19:45;101927.03;;;9.29;96.32
9009;BME280;62813;51.424;6.762;2023-04-08T00:22:12;101925.31;;;9.31;96.31
9009;BME280;62813;51.424;6.762;2023-04-08T00:24:39;101923.59;;;9.30;95.83
9009;BME280;62813;51.424;6.762;2023-04-08T00:27:06;101928.78;;;9.30;96.04
9009;BME280;62813;51.424;6.762;2023-04-08T00:29:33;101925.34;;;9.28;95.62
9009;BME280;62813;51.424;6.762;2023-04-08T00:31:59;101930.53;;;9.28;96.07
9009;BME280;62813;51.424;6.762;2023-04-08T00:34:26;101927.94;;;9.28;95.79
9009;BME280;62813;51.424;6.762;2023-04-08T00:36:53;101930.53;;;9.28;95.78
9009;BME280;62813;51.424;6.762;2023-04-08T00:39:19;101930.53;;;9.28;95.78
9009;BME280;62813;51.424;6.762;2023-04-08T00:41:46;101930.53;;;9.28;95.78
9009;BME280;62813;51.424;6.762;2023-04-08T00:44:13;101934.88;;;9.26;95.74
9009;BME280;62813;51.424;6.762;2023-04-08T00:46:42;101940.88;;;9.28;95.75
9009;BME280;62813;51.424;6.762;2023-04-08T00:49:09;101934.84;;;9.28;95.54
9009;BME280;62813;51.424;6.762;2023-04-08T00:51:35;101939.19;;;9.27;94.97
9009;BME280;62813;51.424;6.762;2023-04-08T00:54:03;101940.94;;;9.25;94.93
9009;BME280;62813;51.424;6.762;2023-04-08T00:56:31;101947.91;;;9.23;95.09
9009;BME280;62813;51.424;6.762;2023-04-08T00:58:59;101941.88;;;9.21;94.81
9009;BME280;62813;51.424;6.762;2023-04-08T01:05:06;101949.59;;;9.22;94.96
9009;BME280;62813;51.424;6.762;2023-04-08T01:07:37;101953.13;;;9.20;94.40
9009;BME280;62813;51.424;6.762;2023-04-08T01:10:18;101957.50;;;9.16;94.22
9009;BME280;62813;51.424;6.762;2023-04-08T01:12:53;101955.03;;;9.07;93.93
9009;BME280;62813;51.424;6.762;2023-04-08T01:15:20;101949.88;;;9.06;94.25
9009;BME280;62813;51.424;6.762;2023-04-08T01:17:49;101955.91;;;9.05;94.35
9009;BME280;62813;51.424;6.762;2023-04-08T01:20:18;101953.31;;;9.06;94.35
9009;BME280;62813;51.424;6.762;2023-04-08T01:25:53;101950.72;;;9.09;94.50
9009;BME280;62813;51.424;6.762;2023-04-08T01:28:23;101946.38;;;9.10;94.11
9009;BME280;62813;51.424;6.762;2023-04-08T01:30:51;101953.28;;;9.08;94.25
9009;BME280;62813;51.424;6.762;2023-04-08T01:33:20;101948.97;;;9.08;94.21
9009;BME280;62813;51.424;6.762;2023-04-08T01:35:47;101957.59;;;9.10;94.20
9009;BME280;62813;51.424;6.762;2023-04-08T01:38:18;101961.91;;;9.10;94.35
9009;BME280;62813;51.424;6.762;2023-04-08T01:40:46;101954.13;;;9.11;94.41
9009;BME280;62813;51.424;6.762;2023-04-08T01:43:15;101961.03;;;9.11;94.28
9009;BME280;62813;51.424;6.762;2023-04-08T01:45:44;101955.84;;;9.11;94.24
9009;BME280;62813;51.424;6.762;2023-04-08T01:48:13;101957.56;;;9.12;94.15
9009;BME280;62813;51.424;6.762;2023-04-08T01:50:43;101957.56;;;9.12;94.29
9009;BME280;62813;51.424;6.762;2023-04-08T01:53:11;101953.28;;;9.08;94.11
9009;BME280;62813;51.424;6.762;2023-04-08T01:55:40;101951.59;;;9.07;93.64
9009;BME280;62813;51.424;6.762;2023-04-08T01:58:10;101956.81;;;9.04;93.79
9009;BME280;62813;51.424;6.762;2023-04-08T02:00:39;101956.84;;;9.02;93.83
9009;BME280;62813;51.424;6.762;2023-04-08T02:03:11;101955.09;;;9.03;93.45
9009;BME280;62813;51.424;6.762;2023-04-08T02:05:39;101952.59;;;8.96;93.45
9009;BME280;62813;51.424;6.762;2023-04-08T02:08:08;101960.34;;;8.96;93.58
9009;BME280;62813;51.424;6.762;2023-04-08T02:10:35;101951.72;;;8.97;93.59
9009;BME280;62813;51.424;6.762;2023-04-08T02:13:04;101956.91;;;8.94;93.39
9009;BME280;62813;51.424;6.762;2023-04-08T02:15:34;101955.25;;;8.92;93.30
9009;BME280;62813;51.424;6.762;2023-04-08T02:18:10;101956.97;;;8.91;93.65
9009;BME280;62813;51.424;6.762;2023-04-08T02:20:46;101957.81;;;8.92;93.51
9009;BME280;62813;51.424;6.762;2023-04-08T02:23:19;101965.59;;;8.92;93.68
9009;BME280;62813;51.424;6.762;2023-04-08T02:25:48;101966.47;;;8.91;93.87
9009;BME280;62813;51.424;6.762;2023-04-08T02:28:17;101970.81;;;8.87;93.17
9009;BME280;62813;51.424;6.762;2023-04-08T02:30:53;101958.78;;;8.85;93.84
9009;BME280;62813;51.424;6.762;2023-04-08T02:33:21;101964.84;;;8.84;93.74
9009;BME280;62813;51.424;6.762;2023-04-08T02:35:50;101970.94;;;8.81;93.55
9009;BME280;62813;51.424;6.762;2023-04-08T02:38:20;101969.25;;;8.77;93.33
9009;BME280;62813;51.424;6.762;2023-04-08T02:40:49;101969.31;;;8.74;93.54
9009;BME280;62813;51.424;6.762;2023-04-08T02:43:16;101966.78;;;8.69;93.54
9009;BME280;62813;51.424;6.762;2023-04-08T02:45:43;101969.41;;;8.68;93.77
9009;BME280;62813;51.424;6.762;2023-04-08T02:48:11;101968.56;;;8.64;93.72
9009;BME280;62813;51.424;6.762;2023-04-08T02:50:38;101969.47;;;8.62;93.78
9009;BME280;62813;51.424;6.762;2023-04-08T02:53:07;101967.78;;;8.61;93.50
9009;BME280;62813;51.424;6.762;2023-04-08T02:55:34;101975.53;;;8.61;93.57
9009;BME280;62813;51.424;6.762;2023-04-08T02:58:00;101969.56;;;8.56;93.43
9009;BME280;62813;51.424;6.762;2023-04-08T03:00:27;101971.31;;;8.54;93.31
9009;BME280;62813;51.424;6.762;2023-04-08T03:02:54;101968.75;;;8.52;93.63
9009;BME280;62813;51.424;6.762;2023-04-08T03:05:21;101968.75;;;8.52;93.33
9009;BME280;62813;51.424;6.762;2023-04-08T03:07:47;101970.47;;;8.50;93.32
9009;BME280;62813;51.424;6.762;2023-04-08T03:10:14;101971.38;;;8.48;93.57
9009;BME280;62813;51.424;6.762;2023-04-08T03:12:41;101964.50;;;8.47;93.36
9009;BME280;62813;51.424;6.762;2023-04-08T03:15:08;101966.25;;;8.45;93.16
9009;BME280;62813;51.424;6.762;2023-04-08T03:17:34;101974.06;;;8.40;93.06
9009;BME280;62813;51.424;6.762;2023-04-08T03:20:01;101975.81;;;8.36;92.89
9009;BME280;62813;51.424;6.762;2023-04-08T03:22:32;101975.84;;;8.35;92.90
9009;BME280;62813;51.424;6.762;2023-04-08T03:24:59;101975.06;;;8.31;92.99
9009;BME280;62813;51.424;6.762;2023-04-08T03:27:26;101975.94;;;8.29;93.17
9009;BME280;62813;51.424;6.762;2023-04-08T03:29:52;101969.03;;;8.28;92.95
9009;BME280;62813;51.424;6.762;2023-04-08T03:32:19;101972.50;;;8.27;92.76
9009;BME280;62813;51.424;6.762;2023-04-08T03:34:46;101975.13;;;8.25;92.80
9009;BME280;62813;51.424;6.762;2023-04-08T03:37:21;101984.59;;;8.23;92.75
9009;BME280;62813;51.424;6.762;2023-04-08T03:39:47;101979.50;;;8.19;92.43
9009;BME280;62813;51.424;6.762;2023-04-08T03:42:14;101979.53;;;8.14;92.29
9009;BME280;62813;51.424;6.762;2023-04-08T03:44:41;101983.00;;;8.13;92.48
9009;BME280;62813;51.424;6.762;2023-04-08T03:47:07;101989.06;;;8.09;91.99
9009;BME280;62813;51.424;6.762;2023-04-08T03:49:34;101986.56;;;8.04;91.98
9009;BME280;62813;51.424;6.762;2023-04-08T03:52:01;101983.13;;;8.02;92.10
9009;BME280;62813;51.424;6.762;2023-04-08T03:54:28;101990.91;;;8.01;91.95
9009;BME280;62813;51.424;6.762;2023-04-08T03:56:54;101994.41;;;7.97;91.75
9009;BME280;62813;51.424;6.762;2023-04-08T03:59:21;101992.69;;;7.93;91.57
9009;BME280;62813;51.424;6.762;2023-04-08T04:01:48;101999.59;;;7.94;91.75
9009;BME280;62813;51.424;6.762;2023-04-08T04:04:16;101991.00;;;7.92;91.85
9009;BME280;62813;51.424;6.762;2023-04-08T04:06:44;101991.91;;;7.89;91.79
9009;BME280;62813;51.424;6.762;2023-04-08T04:09:11;101997.06;;;7.89;91.48
9009;BME280;62813;51.424;6.762;2023-04-08T04:11:38;101989.31;;;7.88;91.34
9009;BME280;62813;51.424;6.762;2023-04-08T04:14:04;101989.31;;;7.86;91.22
9009;BME280;62813;51.424;6.762;2023-04-08T04:16:31;101997.06;;;7.86;90.89
9009;BME280;62813;51.424;6.762;2023-04-08T04:18:58;102006.56;;;7.85;91.33
9009;BME280;62813;51.424;6.762;2023-04-08T04:21:25;101999.69;;;7.84;91.25
9009;BME280;62813;51.424;6.762;2023-04-08T04:23:52;102003.16;;;7.82;91.06
9009;BME280;62813;51.424;6.762;2023-04-08T04:26:19;102004.88;;;7.80;90.95
9009;BME280;62813;51.424;6.762;2023-04-08T04:28:46;102008.38;;;7.77;90.95
9009;BME280;62813;51.424;6.762;2023-04-08T04:31:22;102011.81;;;7.76;90.61
9009;BME280;62813;51.424;6.762;2023-04-08T04:33:52;102019.59;;;7.75;90.78
9009;BME280;62813;51.424;6.762;2023-04-08T04:36:18;102025.63;;;7.75;90.29
9009;BME280;62813;51.424;6.762;2023-04-08T04:38:45;102036.81;;;7.74;90.37
9009;BME280;62813;51.424;6.762;2023-04-08T04:41:15;102028.19;;;7.74;90.41
9009;BME280;62813;51.424;6.762;2023-04-08T04:43:42;102034.25;;;7.71;90.58
9009;BME280;62813;51.424;6.762;2023-04-08T04:46:11;102030.78;;;7.75;90.43
9009;BME280;62813;51.424;6.762;2023-04-08T04:48:38;102032.47;;;7.79;90.22
9009;BME280;62813;51.424;6.762;2023-04-08T04:51:04;102035.03;;;7.81;90.16
9009;BME280;62813;51.424;6.762;2023-04-08T04:53:33;102028.97;;;7.85;90.38
9009;BME280;62813;51.424;6.762;2023-04-08T04:55:59;102024.66;;;7.85;90.28
9009;BME280;62813;51.424;6.762;2023-04-08T04:58:29;102027.25;;;7.85;90.34
9009;BME280;62813;51.424;6.762;2023-04-08T05:00:56;102030.69;;;7.84;90.44
9009;BME280;62813;51.424;6.762;2023-04-08T05:03:23;102037.59;;;7.84;90.19
9009;BME280;62813;51.424;6.762;2023-04-08T05:05:51;102029.00;;;7.83;90.37
9009;BME280;62813;51.424;6.762;2023-04-08T05:08:20;102042.75;;;7.85;90.62
9009;BME280;62813;51.424;6.762;2023-04-08T05:10:47;102038.44;;;7.89;90.66
9009;BME280;62813;51.424;6.762;2023-04-08T05:13:17;102049.63;;;7.90;90.63
9009;BME280;62813;51.424;6.762;2023-04-08T05:15:46;102054.78;;;7.91;90.52
9009;BME280;62813;51.424;6.762;2023-04-08T05:18:13;102053.91;;;7.92;90.74
9009;BME280;62813;51.424;6.762;2023-04-08T05:20:40;102055.59;;;7.93;90.92
9009;BME280;62813;51.424;6.762;2023-04-08T05:23:07;102055.63;;;7.92;90.76
9009;BME280;62813;51.424;6.762;2023-04-08T05:25:34;102055.59;;;7.93;91.49
9009;BME280;62813;51.424;6.762;2023-04-08T05:28:01;102059.06;;;7.92;92.19
9009;BME280;62813;51.424;6.762;2023-04-08T05:30:33;102059.97;;;7.90;92.16
9009;BME280;62813;51.424;6.762;2023-04-08T05:33:00;102063.41;;;7.90;92.08
9009;BME280;62813;51.424;6.762;2023-04-08T05:35:27;102060.81;;;7.87;92.97
9009;BME280;62813;51.424;6.762;2023-04-08T05:37:54;102067.72;;;7.88;93.32
9009;BME280;62813;51.424;6.762;2023-04-08T05:40:21;102068.56;;;7.92;93.56
9009;BME280;62813;51.424;6.762;2023-04-08T05:42:48;102066.78;;;7.97;93.83
9009;BME280;62813;51.424;6.762;2023-04-08T05:45:15;102075.38;;;7.99;93.36
9009;BME280;62813;51.424;6.762;2023-04-08T05:47:42;102074.50;;;8.00;93.42
9009;BME280;62813;51.424;6.762;2023-04-08T05:50:09;102082.25;;;8.01;93.53
9009;BME280;62813;51.424;6.762;2023-04-08T05:52:41;102085.72;;;7.99;93.09
9009;BME280;62813;51.424;6.762;2023-04-08T05:55:09;102084.88;;;7.95;93.36
9009;BME280;62813;51.424;6.762;2023-04-08T05:57:36;102085.78;;;7.93;93.53
9009;BME280;62813;51.424;6.762;2023-04-08T06:00:08;102087.47;;;7.94;93.51
9009;BME280;62813;51.424;6.762;2023-04-08T06:02:38;102090.06;;;7.97;93.89
9009;BME280;62813;51.424;6.762;2023-04-08T06:05:05;102093.50;;;7.96;93.93
9009;BME280;62813;51.424;6.762;2023-04-08T06:07:32;102095.22;;;7.98;94.15
9009;BME280;62813;51.424;6.762;2023-04-08T06:09:59;102091.78;;;7.98;94.21
9009;BME280;62813;51.424;6.762;2023-04-08T06:12:26;102093.44;;;8.02;94.32
9009;BME280;62813;51.424;6.762;2023-04-08T06:14:56;102102.91;;;8.06;94.30
9009;BME280;62813;51.424;6.762;2023-04-08T06:17:22;102102.00;;;8.10;94.55
9009;BME280;62813;51.424;6.762;2023-04-08T06:19:49;102099.38;;;8.13;94.35
9009;BME280;62813;51.424;6.762;2023-04-08T06:22:16;102101.09;;;8.14;94.40
9009;BME280;62813;51.424;6.762;2023-04-08T06:24:42;102100.19;;;8.17;94.80
9009;BME280;62813;51.424;6.762;2023-04-08T06:27:09;102104.44;;;8.24;94.68
9009;BME280;62813;51.424;6.762;2023-04-08T06:29:36;102106.16;;;8.26;94.91
9009;BME280;62813;51.424;6.762;2023-04-08T06:32:02;102118.22;;;8.27;94.64
9009;BME280;62813;51.424;6.762;2023-04-08T06:34:29;102113.88;;;8.29;94.34
9009;BME280;62813;51.424;6.762;2023-04-08T06:36:56;102118.22;;;8.27;93.60
9009;BME280;62813;51.424;6.762;2023-04-08T06:39:23;102115.66;;;8.26;93.73
9009;BME280;62813;51.424;6.762;2023-04-08T06:41:49;102115.63;;;8.29;93.74
9009;BME280;62813;51.424;6.762;2023-04-08T06:44:16;102125.09;;;8.28;93.73
9009;BME280;62813;51.424;6.762;2023-04-08T06:46:43;102125.94;;;8.32;93.32
9009;BME280;62813;51.424;6.762;2023-04-08T06:49:11;102126.78;;;8.31;93.91
9009;BME280;62813;51.424;6.762;2023-04-08T06:51:38;102128.50;;;8.35;93.90
9009;BME280;62813;51.424;6.762;2023-04-08T06:54:04;102130.25;;;8.31;93.13
9009;BME280;62813;51.424;6.762;2023-04-08T06:56:31;102131.94;;;8.35;93.66
9009;BME280;62813;51.424;6.762;2023-04-08T06:58:58;102137.09;;;8.35;93.17
9009;BME280;62813;51.424;6.762;2023-04-08T07:01:24;102137.97;;;8.34;93.16
9009;BME280;62813;51.424;6.762;2023-04-08T07:03:51;102142.31;;;8.32;92.78
9009;BME280;62813;51.424;6.762;2023-04-08T07:06:18;102144.97;;;8.26;92.89
9009;BME280;62813;51.424;6.762;2023-04-08T07:08:45;102151.88;;;8.23;93.06
9009;BME280;62813;51.424;6.762;2023-04-08T07:11:11;102156.19;;;8.22;92.63
9009;BME280;62813;51.424;6.762;2023-04-08T07:13:38;102151.94;;;8.17;92.94
9009;BME280;62813;51.424;6.762;2023-04-08T07:16:07;102157.25;;;8.00;92.98
9009;BME280;62813;51.424;6.762;2023-04-08T07:18:33;102151.19;;;8.04;92.97
9009;BME280;62813;51.424;6.762;2023-04-08T07:21:00;102152.91;;;8.05;93.52
9009;BME280;62813;51.424;6.762;2023-04-08T07:23:27;102165.81;;;8.08;93.28
9009;BME280;62813;51.424;6.762;2023-04-08T07:25:54;102164.09;;;8.05;92.50
9009;BME280;62813;51.424;6.762;2023-04-08T07:28:21;102170.13;;;8.06;92.36
9009;BME280;62813;51.424;6.762;2023-04-08T07:30:47;102166.75;;;7.98;91.96
9009;BME280;62813;51.424;6.762;2023-04-08T07:33:14;102171.94;;;7.98;92.62
9009;BME280;62813;51.424;6.762;2023-04-08T07:35:41;102177.09;;;7.95;92.90
9009;BME280;62813;51.424;6.762;2023-04-08T07:38:08;102185.72;;;7.98;92.80
9009;BME280;62813;51.424;6.762;2023-04-08T07:40:36;102182.38;;;7.84;91.91
9009;BME280;62813;51.424;6.762;2023-04-08T07:43:03;102185.91;;;7.66;92.43
9009;BME280;62813;51.424;6.762;2023-04-08T07:45:30;102193.66;;;7.69;92.23
9009;BME280;62813;51.424;6.762;2023-04-08T07:47:57;102185.09;;;7.61;92.75
9009;BME280;62813;51.424;6.762;2023-04-08T07:50:23;102187.63;;;7.70;93.11
9009;BME280;62813;51.424;6.762;2023-04-08T07:52:50;102186.69;;;7.80;92.33
9009;BME280;62813;51.424;6.762;2023-04-08T07:55:18;102194.34;;;7.93;93.20
9009;BME280;62813;51.424;6.762;2023-04-08T07:57:45;102200.38;;;7.95;91.54
9009;BME280;62813;51.424;6.762;2023-04-08T08:00:13;102202.13;;;7.91;91.67
9009;BME280;62813;51.424;6.762;2023-04-08T08:02:46;102206.44;;;7.91;91.32
9009;BME280;62813;51.424;6.762;2023-04-08T08:05:14;102203.00;;;7.92;90.97
9009;BME280;62813;51.424;6.762;2023-04-08T08:07:40;102209.03;;;7.88;92.03
9009;BME280;62813;51.424;6.762;2023-04-08T08:10:08;102214.22;;;7.86;91.21
9009;BME280;62813;51.424;6.762;2023-04-08T08:12:35;102215.00;;;7.96;92.07
9009;BME280;62813;51.424;6.762;2023-04-08T08:15:02;102220.22;;;7.93;91.36
9009;BME280;62813;51.424;6.762;2023-04-08T08:17:34;102222.88;;;7.83;91.53
9009;BME280;62813;51.424;6.762;2023-04-08T08:20:01;102216.75;;;7.94;91.77
9009;BME280;62813;51.424;6.762;2023-04-08T08:22:29;102219.25;;;8.06;92.09
9009;BME280;62813;51.424;6.762;2023-04-08T08:24:56;102227.00;;;8.09;90.84
9009;BME280;62813;51.424;6.762;2023-04-08T08:27:24;102226.13;;;8.08;90.20
9009;BME280;62813;51.424;6.762;2023-04-08T08:29:51;102228.72;;;8.07;88.96
9009;BME280;62813;51.424;6.762;2023-04-08T08:32:18;102225.22;;;8.14;89.45
9009;BME280;62813;51.424;6.762;2023-04-08T08:34:45;102234.66;;;8.24;89.38
9009;BME280;62813;51.424;6.762;2023-04-08T08:37:11;102240.59;;;8.38;89.39
9009;BME280;62813;51.424;6.762;2023-04-08T08:39:38;102240.47;;;8.51;89.40
9009;BME280;62813;51.424;6.762;2023-04-08T08:42:17;102236.09;;;8.57;88.81
9009;BME280;62813;51.424;6.762;2023-04-08T08:44:44;102235.13;;;8.69;88.48
9009;BME280;62813;51.424;6.762;2023-04-08T08:47:11;102234.28;;;8.65;86.61
9009;BME280;62813;51.424;6.762;2023-04-08T08:49:37;102233.47;;;8.59;86.77
9009;BME280;62813;51.424;6.762;2023-04-08T08:52:04;102227.41;;;8.64;87.26
9009;BME280;62813;51.424;6.762;2023-04-08T08:54:32;102225.59;;;8.73;87.02
9009;BME280;62813;51.424;6.762;2023-04-08T08:56:58;102232.44;;;8.81;86.59
9009;BME280;62813;51.424;6.762;2023-04-08T08:59:25;102230.69;;;8.83;86.48
9009;BME280;62813;51.424;6.762;2023-04-08T09:01:53;102229.69;;;8.93;86.53
9009;BME280;62813;51.424;6.762;2023-04-08T09:04:20;102242.72;;;8.86;85.49
9009;BME280;62813;51.424;6.762;2023-04-08T09:06:50;102234.91;;;8.92;85.24
9009;BME280;62813;51.424;6.762;2023-04-08T09:09:50;102231.53;;;8.84;84.70
9009;BME280;62813;51.424;6.762;2023-04-08T09:12:17;102232.34;;;8.87;85.14
9009;BME280;62813;51.424;6.762;2023-04-08T09:14:44;102234.09;;;8.88;85.13
9009;BME280;62813;51.424;6.762;2023-04-08T09:17:11;102239.19;;;8.94;85.02
9009;BME280;62813;51.424;6.762;2023-04-08T09:19:38;102245.28;;;8.87;83.78
9009;BME280;62813;51.424;6.762;2023-04-08T09:22:07;102249.53;;;8.97;83.21
9009;BME280;62813;51.424;6.762;2023-04-08T09:24:34;102245.16;;;9.01;83.07
9009;BME280;62813;51.424;6.762;2023-04-08T09:27:03;102236.31;;;9.22;83.17
9009;BME280;62813;51.424;6.762;2023-04-08T09:29:31;102247.44;;;9.32;81.46
9009;BME280;62813;51.424;6.762;2023-04-08T09:32:02;102251.59;;;9.43;81.60
9009;BME280;62813;51.424;6.762;2023-04-08T09:34:31;102253.25;;;9.50;81.27
9009;BME280;62813;51.424;6.762;2023-04-08T09:36:59;102263.69;;;9.46;80.32
9009;BME280;62813;51.424;6.762;2023-04-08T09:39:26;102261.13;;;9.43;80.96
9009;BME280;62813;51.424;6.762;2023-04-08T09:41:56;102260.06;;;9.59;80.48
9009;BME280;62813;51.424;6.762;2023-04-08T09:44:25;102259.22;;;9.59;79.99
9009;BME280;62813;51.424;6.762;2023-04-08T09:51:58;102257.69;;;9.41;80.27
9009;BME280;62813;51.424;6.762;2023-04-08T09:57:09;102256.66;;;9.56;80.30
9009;BME280;62813;51.424;6.762;2023-04-08T09:59:45;102258.34;;;9.60;80.02
9009;BME280;62813;51.424;6.762;2023-04-08T10:02:19;102264.06;;;9.83;79.01
9009;BME280;62813;51.424;6.762;2023-04-08T10:04:49;102254.53;;;9.87;78.62
9009;BME280;62813;51.424;6.762;2023-04-08T10:07:17;102245.63;;;10.03;78.66
9009;BME280;62813;51.424;6.762;2023-04-08T10:09:44;102245.66;;;10.01;75.83
9009;BME280;62813;51.424;6.762;2023-04-08T10:12:11;102239.44;;;10.12;76.21
9009;BME280;62813;51.424;6.762;2023-04-08T10:14:38;102248.75;;;10.25;76.39
9009;BME280;62813;51.424;6.762;2023-04-08T10:17:24;102246.84;;;10.38;75.40
9009;BME280;62813;51.424;6.762;2023-04-08T10:19:53;102248.41;;;10.46;74.57
9009;BME280;62813;51.424;6.762;2023-04-08T10:27:43;102248.16;;;10.61;72.93
9009;BME280;62813;51.424;6.762;2023-04-08T10:32:58;102251.47;;;10.70;70.56
9009;BME280;62813;51.424;6.762;2023-04-08T10:35:34;102248.03;;;10.68;71.16
9009;BME280;62813;51.424;6.762;2023-04-08T10:38:02;102253.22;;;10.69;72.16
9009;BME280;62813;51.424;6.762;2023-04-08T10:40:34;102261.34;;;10.48;68.83
9009;BME280;62813;51.424;6.762;2023-04-08T10:43:04;102263.22;;;10.40;68.78
9009;BME280;62813;51.424;6.762;2023-04-08T10:45:31;102258.88;;;10.40;66.85
9009;BME280;62813;51.424;6.762;2023-04-08T10:50:37;102248.31;;;10.52;66.72
9009;BME280;62813;51.424;6.762;2023-04-08T10:53:03;102239.75;;;10.47;66.05
9009;BME280;62813;51.424;6.762;2023-04-08T10:55:30;102244.66;;;10.63;66.35
9009;BME280;62813;51.424;6.762;2023-04-08T10:58:15;102238.44;;;10.73;66.33
9009;BME280;62813;51.424;6.762;2023-04-08T11:00:42;102236.66;;;10.75;66.51
9009;BME280;62813;51.424;6.762;2023-04-08T11:03:10;102246.06;;;10.82;66.65
9009;BME280;62813;51.424;6.762;2023-04-08T11:05:40;102239.25;;;10.75;66.42
9009;BME280;62813;51.424;6.762;2023-04-08T11:08:07;102236.78;;;10.69;66.30
9009;BME280;62813;51.424;6.762;2023-04-08T11:10:37;102235.34;;;10.52;66.99
9009;BME280;62813;51.424;6.762;2023-04-08T11:13:07;102237.28;;;10.40;66.69
9009;BME280;62813;51.424;6.762;2023-04-08T11:15:35;102243.41;;;10.34;67.41
9009;BME280;62813;51.424;6.762;2023-04-08T11:18:04;102235.06;;;10.17;68.11
9009;BME280;62813;51.424;6.762;2023-04-08T11:20:32;102242.00;;;10.15;68.50
9009;BME280;62813;51.424;6.762;2023-04-08T11:23:02;102236.84;;;10.12;68.04
9009;BME280;62813;51.424;6.762;2023-04-08T11:25:29;102235.91;;;10.17;68.06
9009;BME280;62813;51.424;6.762;2023-04-08T11:27:56;102239.38;;;10.16;67.87
9009;BME280;62813;51.424;6.762;2023-04-08T11:30:23;102235.06;;;10.17;67.96
9009;BME280;62813;51.424;6.762;2023-04-08T11:32:52;102230.59;;;10.25;67.91
9009;BME280;62813;51.424;6.762;2023-04-08T11:35:19;102239.91;;;10.38;67.92
9009;BME280;62813;51.424;6.762;2023-04-08T11:37:46;102233.75;;;10.44;67.92
9009;BME280;62813;51.424;6.762;2023-04-08T11:40:19;102230.03;;;10.58;67.62
9009;BME280;62813;51.424;6.762;2023-04-08T11:42:47;102227.28;;;10.68;67.62
9009;BME280;62813;51.424;6.762;2023-04-08T11:45:18;102234.25;;;10.66;67.65
9009;BME280;62813;51.424;6.762;2023-04-08T11:47:46;102235.84;;;10.73;67.09
9009;BME280;62813;51.424;6.762;2023-04-08T11:50:22;102235.81;;;10.74;67.63
9009;BME280;62813;51.424;6.762;2023-04-08T11:52:50;102238.38;;;10.76;67.04
9009;BME280;62813;51.424;6.762;2023-04-08T11:55:28;102235.78;;;10.76;66.95
9009;BME280;62813;51.424;6.762;2023-04-08T11:58:00;102243.59;;;10.74;66.59
9009;BME280;62813;51.424;6.762;2023-04-08T12:00:27;102253.81;;;10.83;66.86
9009;BME280;62813;51.424;6.762;2023-04-08T12:02:54;102246.19;;;10.74;67.15
9009;BME280;62813;51.424;6.762;2023-04-08T12:05:21;102251.22;;;10.85;67.06
9009;BME280;62813;51.424;6.762;2023-04-08T12:07:47;102252.00;;;10.88;66.38
9009;BME280;62813;51.424;6.762;2023-04-08T12:10:14;102246.88;;;10.84;66.21
9009;BME280;62813;51.424;6.762;2023-04-08T12:12:41;102250.38;;;10.83;66.56
9009;BME280;62813;51.424;6.762;2023-04-08T12:15:08;102246.91;;;10.82;67.83
9009;BME280;62813;51.424;6.762;2023-04-08T12:17:35;102243.16;;;10.99;67.57
9009;BME280;62813;51.424;6.762;2023-04-08T12:20:05;102252.50;;;11.10;66.93
9009;BME280;62813;51.424;6.762;2023-04-08T12:22:32;102243.75;;;11.14;66.21
9009;BME280;62813;51.424;6.762;2023-04-08T12:24:58;102247.47;;;11.01;64.75
9009;BME280;62813;51.424;6.762;2023-04-08T12:27:25;102256.97;;;11.02;66.14
9009;BME280;62813;51.424;6.762;2023-04-08T12:29:52;102253.66;;;10.94;64.74
9009;BME280;62813;51.424;6.762;2023-04-08T12:32:18;102248.47;;;10.91;65.42
9009;BME280;62813;51.424;6.762;2023-04-08T12:34:46;102245.78;;;10.99;65.48
9009;BME280;62813;51.424;6.762;2023-04-08T12:37:12;102239.47;;;11.12;65.60
9009;BME280;62813;51.424;6.762;2023-04-08T12:39:39;102245.22;;;11.28;64.45
9009;BME280;62813;51.424;6.762;2023-04-08T12:42:05;102247.69;;;11.35;64.62
9009;BME280;62813;51.424;6.762;2023-04-08T12:44:32;102243.34;;;11.36;64.28
9009;BME280;62813;51.424;6.762;2023-04-08T12:46:59;102246.22;;;11.22;63.78
9009;BME280;62813;51.424;6.762;2023-04-08T12:49:25;102257.06;;;10.98;64.93
9009;BME280;62813;51.424;6.762;2023-04-08T12:51:53;102244.13;;;10.95;65.19
9009;BME280;62813;51.424;6.762;2023-04-08T12:54:20;102241.47;;;10.99;65.59
9009;BME280;62813;51.424;6.762;2023-04-08T12:56:47;102236.34;;;10.92;65.07
9009;BME280;62813;51.424;6.762;2023-04-08T12:59:14;102246.66;;;10.99;65.09
9009;BME280;62813;51.424;6.762;2023-04-08T13:01:41;102229.25;;;11.03;65.17
9009;BME280;62813;51.424;6.762;2023-04-08T13:04:08;102233.47;;;11.08;65.86
9009;BME280;62813;51.424;6.762;2023-04-08T13:06:35;102236.97;;;11.07;65.77
9009;BME280;62813;51.424;6.762;2023-04-08T13:09:02;102243.81;;;11.11;66.49
9009;BME280;62813;51.424;6.762;2023-04-08T13:11:31;102236.34;;;10.92;67.88
9009;BME280;62813;51.424;6.762;2023-04-08T13:13:59;102240.53;;;11.02;67.61
9009;BME280;62813;51.424;6.762;2023-04-08T13:16:26;102232.50;;;11.12;67.25
9009;BME280;62813;51.424;6.762;2023-04-08T13:18:53;102235.13;;;11.12;67.75
9009;BME280;62813;51.424;6.762;2023-04-08T13:21:19;102238.63;;;11.10;67.82
9009;BME280;62813;51.424;6.762;2023-04-08T13:23:46;102233.47;;;11.08;67.78
9009;BME280;62813;51.424;6.762;2023-04-08T13:26:13;102238.00;;;10.97;68.08
9009;BME280;62813;51.424;6.762;2023-04-08T13:28:40;102226.69;;;11.01;68.74
9009;BME280;62813;51.424;6.762;2023-04-08T13:31:27;102231.78;;;11.07;68.93
9009;BME280;62813;51.424;6.762;2023-04-08T13:33:54;102228.31;;;11.05;69.19
9009;BME280;62813;51.424;6.762;2023-04-08T13:36:23;102222.38;;;11.00;69.93